KGLR/GLR METAR and TAF weather

Enter ICAO airport designator
Station Type Date Time Source
KGLR METAR 2019/08/23 14:53 UTC NOAA

KGLR 231453Z AUTO 05007KT 10SM CLR 17/10 A3024 RMK AO2 SLP242 T01670100 51010


Station Type Date Time Source
KGLR Decoded METAR 2019/08/23 14:53 UTC NOAA

Station name not available
Aug 23, 2019 - 10:53 AM EDT / 2019.08.23 1453 UTC
Wind: from the NE (050 degrees) at 8 MPH (7 KT):0
Visibility: 10 mile(s):0
Sky conditions: clear
Temperature: 62.1 F (16.7 C)
Dew Point: 50.0 F (10.0 C)
Relative Humidity: 64%
Pressure (altimeter): 30.24 in. Hg (1024 hPa)
Pressure tendency: 0.03 inches (1.0 hPa) higher than three hours ago
ob: KGLR 231453Z AUTO 05007KT 10SM CLR 17/10 A3024 RMK AO2 SLP242 T01670100 51010
cycle: 15

Station Type Date Time Source
KGLR TAF UTC NOAA

Error!

Example: see airport list